createdAt,value
2023-01-30T00:02:01.429Z,206.12766
2023-01-30T00:07:02.361Z,203.91561
2023-01-30T00:12:03.261Z,205.01695
2023-01-30T00:17:04.164Z,201.74059
2023-01-30T00:22:05.081Z,202.82353
2023-01-30T00:27:05.985Z,205.01695
2023-01-30T00:32:07.011Z,203.91561
2023-01-30T00:37:08.679Z,202.82353
2023-01-30T00:42:09.781Z,203.91561
2023-01-30T00:47:11.000Z,202.82353
2023-01-30T00:52:12.249Z,208.37768
2023-01-30T00:57:13.212Z,203.91561
2023-01-30T01:02:14.156Z,203.91561
2023-01-30T01:07:15.093Z,205.01695
2023-01-30T01:12:16.004Z,205.01695
2023-01-30T01:17:16.937Z,202.82353
2023-01-30T01:22:17.876Z,203.91561
2023-01-30T01:27:18.770Z,197.49794
2023-01-30T01:32:19.739Z,203.91561
2023-01-30T01:37:20.647Z,200.66667
2023-01-30T01:42:21.626Z,200.66667
2023-01-30T01:47:22.553Z,197.49794
2023-01-30T01:52:23.496Z,199.60166
2023-01-30T01:57:24.481Z,198.54545
2023-01-30T02:02:25.506Z,196.45902
2023-01-30T02:07:26.449Z,199.60166
2023-01-30T02:12:27.394Z,200.66667
2023-01-30T02:17:28.424Z,200.66667
2023-01-30T02:22:29.372Z,196.45902
2023-01-30T02:27:30.298Z,196.45902
2023-01-30T02:32:31.211Z,195.42857
2023-01-30T02:37:32.112Z,193.39271
2023-01-30T02:42:33.088Z,191.38956
2023-01-30T02:47:34.031Z,190.4
2023-01-30T02:52:34.970Z,193.39271
2023-01-30T02:57:35.907Z,194.4065
2023-01-30T03:02:37.074Z,191.38956
2023-01-30T03:07:38.019Z,187.47826
2023-01-30T03:12:38.932Z,185.56863
2023-01-30T03:17:39.924Z,184.625
2023-01-30T03:22:40.834Z,183.68872
2023-01-30T03:27:41.879Z,184.625
2023-01-30T03:32:42.839Z,182.75969
2023-01-30T03:37:43.774Z,183.68872
2023-01-30T03:42:44.761Z,182.75969
2023-01-30T03:47:45.695Z,183.68872
2023-01-30T03:52:46.630Z,184.625
2023-01-30T03:57:47.841Z,181.83784
2023-01-30T04:02:48.791Z,180.92308
2023-01-30T04:07:49.736Z,180.01533
2023-01-30T04:12:50.690Z,176.45283
2023-01-30T04:17:51.647Z,173.85075
2023-01-30T04:22:52.648Z,174.71161
2023-01-30T04:27:53.595Z,177.33333
2023-01-30T04:32:54.548Z,176.45283
2023-01-30T04:37:55.493Z,175.57895
2023-01-30T04:42:56.499Z,175.57895
2023-01-30T04:47:57.443Z,180.01533
2023-01-30T04:52:58.408Z,176.45283
2023-01-30T04:57:59.326Z,179.1145
2023-01-30T05:03:00.272Z,179.1145
2023-01-30T05:08:01.316Z,178.22053
2023-01-30T05:13:02.285Z,180.01533
2023-01-30T05:18:03.196Z,178.22053
2023-01-30T05:23:04.135Z,176.45283
2023-01-30T05:28:05.056Z,173.85075
2023-01-30T05:33:05.995Z,172.14815
2023-01-30T05:38:06.901Z,170.47059
2023-01-30T05:43:07.855Z,170.47059
2023-01-30T05:48:08.901Z,170.47059
2023-01-30T05:53:09.811Z,167.18841
2023-01-30T05:58:10.889Z,167.18841
2023-01-30T06:03:12.133Z,168.0
2023-01-30T06:08:13.596Z,168.0
2023-01-30T06:13:14.586Z,169.64103
2023-01-30T06:18:15.591Z,166.38267
2023-01-30T06:23:16.510Z,165.58273
2023-01-30T06:28:17.388Z,166.38267
2023-01-30T06:33:18.303Z,164.78853
2023-01-30T06:38:19.190Z,164.0
2023-01-30T06:43:20.130Z,161.66784
2023-01-30T06:48:21.019Z,160.14035
2023-01-30T06:53:21.955Z,160.14035
2023-01-30T06:58:22.860Z,159.38462
2023-01-30T07:03:23.797Z,157.88889
2023-01-30T07:08:24.677Z,157.88889
2023-01-30T07:13:25.595Z,157.88889
2023-01-30T07:18:26.536Z,157.88889
2023-01-30T07:23:27.448Z,160.14035
2023-01-30T07:28:28.408Z,156.41379
2023-01-30T07:33:29.493Z,154.23891
2023-01-30T07:38:30.416Z,155.68385
2023-01-30T07:43:31.391Z,153.52381
2023-01-30T07:48:32.282Z,152.10811
2023-01-30T07:53:33.231Z,153.52381
2023-01-30T07:58:34.199Z,150.02007
2023-01-30T08:03:35.127Z,149.33333
2023-01-30T08:08:36.063Z,148.65116
2023-01-30T08:13:36.974Z,148.65116
2023-01-30T08:18:37.895Z,148.65116
2023-01-30T08:23:38.821Z,148.65116
2023-01-30T08:28:39.720Z,147.97351
2023-01-30T08:33:40.687Z,146.63158
2023-01-30T08:38:41.605Z,145.30719
2023-01-30T08:43:42.637Z,145.30719
2023-01-30T08:48:49.494Z,140.80511
2023-01-30T08:53:51.115Z,138.32177
2023-01-30T08:58:52.054Z,140.17834
2023-01-30T09:03:53.013Z,140.17834
2023-01-30T09:08:53.954Z,137.71069
2023-01-30T09:13:54.930Z,137.71069
2023-01-30T09:18:55.935Z,135.90031
2023-01-30T09:23:56.854Z,135.90031
2023-01-30T09:28:57.799Z,137.71069
2023-01-30T09:33:58.746Z,140.17834
2023-01-30T09:38:59.705Z,145.96721
2023-01-30T09:44:00.662Z,149.33333
2023-01-30T09:49:01.678Z,145.96721
2023-01-30T09:54:02.672Z,148.65116
2023-01-30T09:59:03.704Z,145.30719
2023-01-30T10:04:04.652Z,145.96721
2023-01-30T10:09:05.647Z,150.02007
2023-01-30T10:14:06.574Z,152.10811
2023-01-30T10:19:07.552Z,153.52381
2023-01-30T10:24:08.476Z,165.58273
2023-01-30T10:29:09.391Z,168.0
2023-01-30T10:34:10.337Z,175.57895
2023-01-30T10:39:11.607Z,167.18841
2023-01-30T10:44:12.925Z,165.58273
2023-01-30T10:49:13.906Z,170.47059
2023-01-30T10:54:14.833Z,180.01533
2023-01-30T10:59:15.806Z,177.33333
2023-01-30T11:04:16.744Z,184.625
2023-01-30T11:09:17.650Z,179.1145
2023-01-30T11:14:18.847Z,184.625
2023-01-30T11:19:21.961Z,179.1145
2023-01-30T11:24:23.401Z,180.01533
2023-01-30T11:29:24.331Z,181.83784
2023-01-30T11:34:25.268Z,183.68872
2023-01-30T11:39:26.159Z,178.22053
2023-01-30T11:44:27.140Z,178.22053
2023-01-30T11:49:45.465Z,179.1145
2023-01-30T11:54:50.662Z,181.83784
2023-01-30T11:59:51.569Z,177.33333
2023-01-30T12:04:52.513Z,173.85075
2023-01-30T12:09:53.435Z,181.83784
2023-01-30T12:14:54.365Z,180.92308
2023-01-30T12:19:55.262Z,186.51969
2023-01-30T12:24:56.200Z,178.22053
2023-01-30T12:29:57.107Z,157.88889
2023-01-30T12:34:58.098Z,163.21708
2023-01-30T12:39:59.040Z,167.18841
2023-01-30T12:45:00.058Z,175.57895
2023-01-30T12:50:00.996Z,182.75969
2023-01-30T12:55:02.092Z,179.1145
2023-01-30T13:00:03.011Z,172.14815
2023-01-30T13:05:04.748Z,177.33333
2023-01-30T13:10:05.914Z,182.75969
2023-01-30T13:15:06.879Z,181.83784
2023-01-30T13:20:07.809Z,183.68872
2023-01-30T13:25:08.698Z,194.4065
2023-01-30T13:30:09.599Z,201.74059
2023-01-30T13:35:10.527Z,196.45902
2023-01-30T13:40:11.860Z,197.49794
2023-01-30T13:45:13.165Z,191.38956
2023-01-30T13:50:14.276Z,190.4
2023-01-30T13:55:15.289Z,191.38956
2023-01-30T14:00:16.687Z,186.51969
2023-01-30T14:05:18.071Z,182.75969
2023-01-30T14:10:19.529Z,179.1145
2023-01-30T14:15:21.067Z,173.85075
2023-01-30T14:20:22.223Z,175.57895
2023-01-30T14:25:23.204Z,175.57895
2023-01-30T14:30:24.097Z,181.83784
2023-01-30T14:35:25.045Z,180.01533
2023-01-30T14:40:25.980Z,180.92308
2023-01-30T14:45:26.970Z,178.22053
2023-01-30T14:50:28.166Z,181.83784
2023-01-30T14:55:29.197Z,180.92308
2023-01-30T15:00:30.160Z,181.83784
2023-01-30T15:05:31.091Z,182.75969
2023-01-30T15:10:32.010Z,186.51969
2023-01-30T15:15:32.956Z,183.68872
2023-01-30T15:20:33.884Z,183.68872
2023-01-30T15:25:34.855Z,188.44444
2023-01-30T15:30:35.797Z,185.56863
2023-01-30T15:35:36.797Z,184.625
2023-01-30T15:40:37.742Z,182.75969
2023-01-30T15:45:38.820Z,177.33333
2023-01-30T15:50:39.795Z,177.33333
2023-01-30T15:55:40.730Z,170.47059
2023-01-30T16:00:41.780Z,168.81752
2023-01-30T16:05:42.880Z,168.0
2023-01-30T16:10:43.843Z,172.14815
2023-01-30T16:15:44.802Z,180.92308
2023-01-30T16:20:55.373Z,183.68872
2023-01-30T16:26:02.108Z,177.33333
2023-01-30T16:31:03.246Z,178.22053
2023-01-30T16:36:04.335Z,177.33333
2023-01-30T16:41:05.289Z,174.71161
2023-01-30T16:46:06.282Z,170.47059
2023-01-30T16:51:07.272Z,166.38267
2023-01-30T16:56:08.761Z,172.14815
2023-01-30T17:01:09.899Z,172.99628
2023-01-30T17:06:10.926Z,172.14815
2023-01-30T17:11:12.092Z,178.22053
2023-01-30T17:16:13.334Z,178.22053
2023-01-30T17:21:14.518Z,178.22053
2023-01-30T17:26:15.562Z,172.99628
2023-01-30T17:31:16.629Z,179.1145
2023-01-30T17:36:17.639Z,179.1145
2023-01-30T17:41:18.635Z,176.45283
2023-01-30T17:46:21.723Z,174.71161
2023-01-30T17:51:23.145Z,175.57895
2023-01-30T17:56:24.960Z,174.71161
2023-01-30T18:01:25.981Z,178.22053
2023-01-30T18:06:26.971Z,177.33333
2023-01-30T18:11:27.910Z,180.01533
2023-01-30T18:16:28.887Z,175.57895
2023-01-30T18:21:29.814Z,179.1145
2023-01-30T18:26:30.746Z,180.01533
2023-01-30T18:31:32.160Z,182.75969
2023-01-30T18:36:33.205Z,185.56863
2023-01-30T18:41:34.121Z,189.41833
2023-01-30T18:46:35.266Z,184.625
2023-01-30T18:51:36.209Z,189.41833
2023-01-30T18:56:37.141Z,190.4
2023-01-30T19:01:38.171Z,187.47826
2023-01-30T19:06:39.105Z,188.44444
2023-01-30T19:11:40.068Z,192.3871
2023-01-30T19:16:41.037Z,189.41833
2023-01-30T19:21:41.956Z,191.38956
2023-01-30T19:26:42.935Z,198.54545
2023-01-30T19:31:44.040Z,198.54545
2023-01-30T19:36:45.110Z,196.45902
2023-01-30T19:41:46.041Z,200.66667
2023-01-30T19:46:47.091Z,200.66667
2023-01-30T19:51:48.023Z,195.42857
2023-01-30T19:56:49.008Z,193.39271
2023-01-30T20:01:50.002Z,195.42857
2023-01-30T20:06:50.999Z,195.42857
2023-01-30T20:11:51.908Z,195.42857
2023-01-30T20:16:52.860Z,195.42857
2023-01-30T20:21:53.891Z,198.54545
2023-01-30T20:26:54.985Z,202.82353
2023-01-30T20:31:55.997Z,201.74059
2023-01-30T20:36:57.104Z,206.12766
2023-01-30T20:41:58.067Z,205.01695
2023-01-30T20:46:59.328Z,202.82353
2023-01-30T20:52:00.314Z,205.01695
2023-01-30T20:57:01.397Z,211.82609
2023-01-30T21:02:03.076Z,208.37768
2023-01-30T21:07:04.096Z,203.91561
2023-01-30T21:12:05.228Z,205.01695
2023-01-30T21:17:06.205Z,203.91561
2023-01-30T21:22:07.156Z,208.37768
2023-01-30T21:27:08.125Z,207.24786
2023-01-30T21:32:09.177Z,201.74059
2023-01-30T21:37:10.117Z,203.91561
2023-01-30T21:42:11.072Z,203.91561
2023-01-30T21:47:12.362Z,208.37768
2023-01-30T21:52:13.528Z,203.91561
2023-01-30T21:57:14.511Z,205.01695
2023-01-30T22:02:15.469Z,212.99563
2023-01-30T22:07:16.453Z,208.37768
2023-01-30T22:12:17.384Z,211.82609
2023-01-30T22:17:18.358Z,208.37768
2023-01-30T22:22:19.333Z,212.99563
2023-01-30T22:27:20.349Z,211.82609
2023-01-30T22:32:21.294Z,207.24786
2023-01-30T22:37:22.243Z,207.24786
2023-01-30T22:42:23.267Z,211.82609
2023-01-30T22:47:24.311Z,212.99563
2023-01-30T22:52:25.251Z,212.99563
2023-01-30T22:57:26.213Z,212.99563
2023-01-30T23:02:27.200Z,224.0
2023-01-30T23:07:28.280Z,222.73303
2023-01-30T23:12:29.233Z,224.0
2023-01-30T23:17:30.186Z,215.36564
2023-01-30T23:22:31.140Z,214.17544
2023-01-30T23:27:32.069Z,212.99563
2023-01-30T23:32:33.065Z,214.17544
2023-01-30T23:37:33.979Z,221.47748
2023-01-30T23:42:35.319Z,221.47748
2023-01-30T23:47:36.372Z,220.23318
2023-01-30T23:52:37.581Z,222.73303
2023-01-30T23:57:38.627Z,217.77778
